Time;durP1;ratioP1;P1;durP2;ratioP2;P2;SDS_P1;SDS_P2;PMS_P1;PMS_P2;Temp;Humidity;BMP_temperature;BMP_pressure;BME280_temperature;BME280_humidity;BME280_pressure;Samples;Min_cycle;Max_cycle;Signal;HPM_P1;HPM_P2
2024/04/15 00:01:10;;;;;;;10.10;4.70;;;;;;;15.84;100.00;100312.65;106032;1255;60441;-76
2024/04/15 00:03:37;;;;;;;10.20;4.30;;;;;;;15.83;100.00;100292.59;106053;1251;60533;-78
2024/04/15 00:06:06;;;;;;;11.70;5.30;;;;;;;15.85;100.00;100284.20;106032;1257;73801;-78
2024/04/15 00:08:32;;;;;;;7.10;4.70;;;;;;;15.86;100.00;100279.16;105964;1254;62778;-77
2024/04/15 00:11:03;;;;;;;9.60;5.50;;;;;;;15.85;100.00;100268.13;105983;1254;72912;-78
2024/04/15 00:13:30;;;;;;;8.50;5.30;;;;;;;15.85;100.00;100263.36;105993;1256;60678;-77
2024/04/15 00:15:57;;;;;;;7.80;5.50;;;;;;;15.86;100.00;100262.55;106048;1258;60535;-78
2024/04/15 00:18:24;;;;;;;6.80;4.30;;;;;;;15.88;100.00;100268.04;105853;1258;73108;-79
2024/04/15 00:21:01;;;;;;;10.60;5.70;;;;;;;15.90;100.00;100282.11;106067;1257;62275;-79
2024/04/15 00:23:28;;;;;;;7.30;4.90;;;;;;;15.93;100.00;100282.39;106417;1251;72413;-76
2024/04/15 00:25:57;;;;;;;10.20;4.60;;;;;;;15.94;100.00;100284.02;107835;1254;60514;-77
2024/04/15 00:28:24;;;;;;;6.60;4.70;;;;;;;15.96;100.00;100276.64;108182;1251;60420;-76
2024/04/15 00:30:51;;;;;;;10.70;5.50;;;;;;;15.98;100.00;100282.47;107505;1251;72498;-76
2024/04/15 00:33:20;;;;;;;7.60;5.00;;;;;;;16.00;100.00;100277.38;106499;1254;62557;-78
2024/04/15 00:35:47;;;;;;;7.90;4.50;;;;;;;16.02;100.00;100278.47;106046;1256;72760;-77
2024/04/15 00:38:14;;;;;;;4.60;4.00;;;;;;;16.02;100.00;100266.73;105987;1254;61780;-77
2024/04/15 00:40:41;;;;;;;8.00;4.40;;;;;;;16.04;100.00;100263.23;106031;1263;60428;-78
2024/04/15 00:43:08;;;;;;;9.00;4.70;;;;;;;16.06;100.00;100262.58;106131;1251;72649;-78
2024/04/15 00:45:35;;;;;;;9.20;5.00;;;;;;;16.06;100.00;100267.80;106116;1253;63887;-78
2024/04/15 00:48:03;;;;;;;8.30;4.60;;;;;;;16.07;100.00;100272.29;106062;1254;72617;-75
2024/04/15 00:52:29;;;;;;;5.90;5.30;;;;;;;16.12;100.00;100272.59;102659;1290;602702;-76
2024/04/15 00:54:57;;;;;;;10.80;5.90;;;;;;;16.12;100.00;100262.00;105084;1266;62093;-76
2024/04/15 00:57:24;;;;;;;10.90;6.60;;;;;;;16.14;100.00;100249.52;105165;1264;60457;-77
2024/04/15 00:59:50;;;;;;;11.20;5.90;;;;;;;16.15;100.00;100260.16;105000;1276;73105;-78
2024/04/15 01:02:17;;;;;;;10.10;7.00;;;;;;;16.16;100.00;100261.12;105093;1268;63716;-77
2024/04/15 01:04:44;;;;;;;9.00;5.30;;;;;;;16.17;100.00;100261.90;104826;1262;203165;-76
2024/04/15 01:07:11;;;;;;;8.00;4.70;;;;;;;16.19;100.00;100267.80;105283;1266;61800;-75
2024/04/15 01:09:37;;;;;;;9.20;5.70;;;;;;;16.19;100.00;100259.45;105216;1264;60403;-77
2024/04/15 01:12:04;;;;;;;11.40;6.10;;;;;;;16.20;100.00;100254.41;105114;1266;59646;-77
2024/04/15 01:14:31;;;;;;;9.10;4.40;;;;;;;16.21;100.00;100247.45;105105;1265;64078;-78
2024/04/15 01:16:58;;;;;;;9.70;5.20;;;;;;;16.22;100.00;100236.45;105113;1266;72601;-77
2024/04/15 01:19:25;;;;;;;8.60;5.10;;;;;;;16.23;100.00;100246.40;105069;1266;61718;-76
2024/04/15 01:21:52;;;;;;;5.90;4.90;;;;;;;16.24;100.00;100252.99;105071;1266;60808;-76
2024/04/15 01:24:19;;;;;;;7.60;4.60;;;;;;;16.25;100.00;100253.14;105027;1262;74031;-78
2024/04/15 01:26:46;;;;;;;6.30;4.30;;;;;;;16.25;100.00;100255.18;105174;1266;60462;-77
2024/04/15 01:29:13;;;;;;;11.30;4.90;;;;;;;16.27;100.00;100260.84;105359;1264;72744;-78
2024/04/15 01:31:40;;;;;;;4.00;3.20;;;;;;;16.28;100.00;100260.80;105275;1267;62010;-76
2024/04/15 01:34:06;;;;;;;9.20;3.70;;;;;;;16.28;100.00;100250.59;105287;1266;60501;-78
2024/04/15 01:36:33;;;;;;;3.20;2.90;;;;;;;16.27;100.00;100252.36;105153;1266;73795;-78
2024/04/15 01:38:59;;;;;;;7.40;3.30;;;;;;;16.27;100.00;100251.52;105193;1266;63691;-78
2024/04/15 01:41:28;;;;;;;5.30;3.30;;;;;;;16.25;100.00;100255.40;105144;1264;72689;-78
2024/04/15 01:43:56;;;;;;;7.60;3.40;;;;;;;16.24;100.00;100257.63;105115;1265;62063;-75
2024/04/15 01:46:22;;;;;;;4.60;3.40;;;;;;;16.23;100.00;100256.14;105095;1266;60488;-78
2024/04/15 01:48:50;;;;;;;3.80;3.30;;;;;;;16.21;100.00;100257.89;105176;1259;72450;-76
2024/04/15 01:51:17;;;;;;;6.10;4.00;;;;;;;16.19;100.00;100266.50;105215;1261;62341;-77
2024/04/15 01:53:43;;;;;;;6.80;3.90;;;;;;;16.17;100.00;100268.25;105165;1263;72528;-78
2024/04/15 01:56:10;;;;;;;5.90;4.00;;;;;;;16.15;100.00;100265.60;105255;1263;61764;-76
2024/04/15 01:58:37;;;;;;;9.50;4.40;;;;;;;16.13;100.00;100258.61;105961;1252;60437;-77
2024/04/15 02:01:04;;;;;;;5.90;4.00;;;;;;;16.10;100.00;100257.95;105855;1256;74001;-77
2024/04/15 02:03:32;;;;;;;6.60;4.80;;;;;;;16.07;100.00;100258.79;105805;1257;63822;-76
2024/04/15 02:05:58;;;;;;;8.10;5.10;;;;;;;16.05;100.00;100260.91;105806;1252;72597;-77
2024/04/15 02:08:25;;;;;;;6.90;4.50;;;;;;;16.04;100.00;100260.12;105751;1252;62062;-76
2024/04/15 02:10:51;;;;;;;8.30;5.80;;;;;;;16.02;100.00;100254.10;105916;1252;60537;-77
2024/04/15 02:13:18;;;;;;;12.60;4.90;;;;;;;16.00;100.00;100259.19;105837;1257;73816;-77
2024/04/15 02:15:45;;;;;;;13.20;5.50;;;;;;;15.99;100.00;100272.72;105906;1255;60434;-78
2024/04/15 02:18:11;;;;;;;9.60;4.90;;;;;;;15.97;100.00;100269.55;105739;1257;60428;-76
2024/04/15 02:20:40;;;;;;;12.60;5.00;;;;;;;15.94;100.00;100275.41;105987;1253;61815;-76
2024/04/15 02:23:06;;;;;;;7.50;4.90;;;;;;;15.91;100.00;100275.83;106016;1254;60459;-77
2024/04/15 02:25:33;;;;;;;6.50;5.20;;;;;;;15.89;100.00;100279.73;105926;1253;73876;-76
2024/04/15 02:28:00;;;;;;;10.70;4.70;;;;;;;15.87;100.00;100276.39;105980;1258;62481;-76
2024/04/15 02:30:26;;;;;;;8.90;5.00;;;;;;;15.84;100.00;100285.96;105926;1252;71398;-77
2024/04/15 02:32:55;;;;;;;7.20;4.90;;;;;;;15.81;100.00;100288.17;105986;1254;60536;-77
2024/04/15 02:35:22;;;;;;;9.20;5.50;;;;;;;15.78;100.00;100294.27;105952;1251;60533;-77
2024/04/15 02:37:48;;;;;;;8.10;5.00;;;;;;;15.75;100.00;100288.88;105976;1251;73797;-77
2024/04/15 02:40:15;;;;;;;8.40;5.10;;;;;;;15.73;100.00;100290.13;105968;1254;63748;-77
2024/04/15 02:42:42;;;;;;;7.20;5.80;;;;;;;15.70;100.00;100291.73;106091;1257;72558;-76
2024/04/15 02:45:11;;;;;;;8.30;5.60;;;;;;;15.69;100.00;100293.10;106074;1251;62018;-77
2024/04/15 02:47:38;;;;;;;8.50;5.60;;;;;;;15.67;100.00;100304.58;106060;1257;60421;-77
2024/04/15 02:50:05;;;;;;;14.10;5.60;;;;;;;15.64;100.00;100310.59;105912;1251;72643;-76
2024/04/15 02:52:32;;;;;;;8.00;5.40;;;;;;;15.62;100.00;100322.40;106039;1251;63704;-77
2024/04/15 02:54:59;;;;;;;12.50;6.70;;;;;;;15.61;100.00;100335.76;105987;1254;72752;-77
2024/04/15 02:57:25;;;;;;;9.60;6.00;;;;;;;15.59;100.00;100335.02;105888;1252;61828;-78
2024/04/15 02:59:52;;;;;;;12.70;6.10;;;;;;;15.58;100.00;100338.30;106014;1254;60523;-78
2024/04/15 03:02:19;;;;;;;14.50;6.30;;;;;;;15.56;100.00;100341.93;105988;1251;73849;-77
2024/04/15 03:04:45;;;;;;;14.00;9.60;;;;;;;15.56;100.00;100341.27;105938;1253;63800;-76
2024/04/15 03:07:13;;;;;;;12.90;8.00;;;;;;;15.53;100.00;100344.99;105870;1251;72687;-79
2024/04/15 03:09:39;;;;;;;15.20;9.40;;;;;;;15.52;100.00;100347.55;106042;1253;61659;-77
2024/04/15 03:12:06;;;;;;;14.30;9.00;;;;;;;15.52;100.00;100347.55;105960;1256;60569;-77
2024/04/15 03:14:33;;;;;;;12.20;7.70;;;;;;;15.52;100.00;100349.70;105923;1251;73633;-76
2024/04/15 03:17:01;;;;;;;13.00;7.60;;;;;;;15.53;100.00;100356.14;105926;1254;63733;-78
2024/04/15 03:19:28;;;;;;;14.40;7.80;;;;;;;15.54;100.00;100362.39;106045;1254;72548;-79
2024/04/15 03:21:55;;;;;;;13.90;6.50;;;;;;;15.57;100.00;100369.55;106003;1257;61688;-77
2024/04/15 03:24:21;;;;;;;12.00;5.40;;;;;;;15.58;100.00;100369.10;105969;1253;60428;-75
2024/04/15 03:26:48;;;;;;;12.40;6.90;;;;;;;15.60;100.00;100373.02;105993;1254;73926;-75
2024/04/15 03:29:15;;;;;;;8.90;5.40;;;;;;;15.62;100.00;100370.55;105907;1254;63973;-76
2024/04/15 03:31:41;;;;;;;14.60;7.30;;;;;;;15.63;100.00;100369.36;106051;1253;71702;-79
2024/04/15 03:34:10;;;;;;;11.10;5.00;;;;;;;15.66;100.00;100370.93;105958;1251;61960;-78
2024/04/15 03:36:37;;;;;;;10.70;5.00;;;;;;;15.67;100.00;100381.20;105962;1255;60405;-74
2024/04/15 03:39:04;;;;;;;14.10;6.60;;;;;;;15.69;100.00;100381.57;105972;1251;72340;-78
2024/04/15 03:41:31;;;;;;;13.80;7.50;;;;;;;15.71;100.00;100382.79;105960;1254;63872;-77
2024/04/15 03:43:58;;;;;;;10.40;5.40;;;;;;;15.73;100.00;100382.25;105964;1255;72518;-78
2024/04/15 03:46:25;;;;;;;16.10;5.50;;;;;;;15.78;100.00;100382.44;105974;1253;61782;-77
2024/04/15 03:48:53;;;;;;;10.30;5.60;;;;;;;15.82;100.00;100388.23;106478;1251;60447;-75
2024/04/15 03:51:20;;;;;;;6.40;3.90;;;;;;;15.85;100.00;100390.84;106552;1251;72350;-78
2024/04/15 03:53:47;;;;;;;8.20;4.90;;;;;;;15.88;100.00;100402.66;106082;1263;63557;-75
2024/04/15 03:56:13;;;;;;;16.80;5.00;;;;;;;15.92;100.00;100404.85;106032;1251;72474;-76
2024/04/15 03:58:41;;;;;;;8.20;5.50;;;;;;;15.98;100.00;100404.88;106002;1263;61931;-75
2024/04/15 04:01:08;;;;;;;9.10;6.10;;;;;;;16.04;100.00;100402.04;106075;1253;60367;-75
2024/04/15 04:03:35;;;;;;;5.00;3.40;;;;;;;16.11;100.00;100395.99;106115;1253;73703;-76
2024/04/15 04:06:02;;;;;;;7.10;3.60;;;;;;;16.18;100.00;100402.09;106117;1254;64006;-75
2024/04/15 04:08:41;;;;;;;5.20;3.50;;;;;;;16.25;100.00;100404.63;106122;1253;72671;-76
2024/04/15 04:11:09;;;;;;;7.20;4.40;;;;;;;16.32;100.00;100405.21;106012;1254;62025;-75
2024/04/15 04:13:37;;;;;;;11.10;5.70;;;;;;;16.40;100.00;100407.73;106121;1253;60533;-75
2024/04/15 04:16:04;;;;;;;13.10;8.30;;;;;;;16.46;100.00;100402.94;106393;1254;73211;-75
2024/04/15 04:18:31;;;;;;;8.90;5.50;;;;;;;16.53;100.00;100411.17;109774;1251;62648;-76
2024/04/15 04:20:58;;;;;;;10.30;6.60;;;;;;;16.60;100.00;100413.92;108043;1251;71353;-77
2024/04/15 04:23:25;;;;;;;12.40;6.00;;;;;;;16.67;100.00;100418.61;105883;1257;61811;-77
2024/04/15 04:25:52;;;;;;;8.00;4.50;;;;;;;16.73;100.00;100419.80;106125;1251;60629;-76
2024/04/15 04:28:18;;;;;;;4.70;3.10;;;;;;;16.80;100.00;100428.06;106072;1254;73501;-76
2024/04/15 04:30:45;;;;;;;5.20;2.90;;;;;;;16.87;100.00;100427.07;106025;1257;63840;-76
2024/04/15 04:33:12;;;;;;;2.70;2.50;;;;;;;16.93;100.00;100430.45;106061;1255;72686;-75
2024/04/15 04:35:39;;;;;;;3.20;2.30;;;;;;;16.97;100.00;100432.71;105963;1254;61711;-77
2024/04/15 04:38:06;;;;;;;6.10;2.30;;;;;;;17.01;100.00;100433.98;106061;1253;60510;-76
2024/04/15 04:40:33;;;;;;;7.20;2.00;;;;;;;17.04;100.00;100435.65;106047;1256;73950;-76
2024/04/15 04:43:00;;;;;;;3.60;1.60;;;;;;;17.04;100.00;100445.13;106000;1254;63891;-77
2024/04/15 04:45:27;;;;;;;2.90;1.90;;;;;;;17.04;100.00;100447.94;105991;1251;71486;-77
2024/04/15 04:47:57;;;;;;;4.50;1.90;;;;;;;17.02;100.00;100438.09;105979;1253;60448;-77
2024/04/15 04:50:23;;;;;;;3.10;2.00;;;;;;;16.98;100.00;100434.86;106087;1251;60368;-78
2024/04/15 04:52:51;;;;;;;7.40;1.50;;;;;;;16.97;100.00;100432.52;106088;1253;73789;-76
2024/04/15 04:55:18;;;;;;;2.90;1.80;;;;;;;16.98;100.00;100431.89;105984;1256;63740;-77
2024/04/15 04:57:45;;;;;;;2.20;1.60;;;;;;;17.01;100.00;100433.81;106032;1251;71565;-76
2024/04/15 05:00:12;;;;;;;1.70;1.50;;;;;;;17.04;100.00;100437.05;105871;1251;61860;-78
2024/04/15 05:02:39;;;;;;;9.50;1.60;;;;;;;17.08;100.00;100444.30;106022;1257;61275;-77
2024/04/15 05:05:06;;;;;;;4.00;1.40;;;;;;;17.22;100.00;100443.19;106044;1254;72955;-78
2024/04/15 05:07:33;;;;;;;3.60;1.60;;;;;;;17.55;100.00;100448.78;105961;1251;63929;-77
2024/04/15 05:10:00;;;;;;;1.60;1.40;;;;;;;18.10;100.00;100453.49;105881;1253;72902;-79
2024/04/15 05:12:27;;;;;;;1.80;1.70;;;;;;;18.72;100.00;100459.05;105921;1254;62244;-77
2024/04/15 05:14:54;;;;;;;6.20;2.00;;;;;;;19.35;100.00;100457.50;105933;1257;61269;-78
2024/04/15 05:17:21;;;;;;;3.10;1.30;;;;;;;19.96;100.00;100458.09;105883;1255;75812;-77
2024/04/15 05:19:47;;;;;;;2.10;1.20;;;;;;;20.51;100.00;100461.13;105881;1255;65073;-77
2024/04/15 05:22:14;;;;;;;3.90;1.50;;;;;;;21.00;100.00;100463.09;105980;1251;71432;-78
2024/04/15 05:24:41;;;;;;;5.50;1.50;;;;;;;21.39;100.00;100470.95;106004;1251;61425;-78
2024/04/15 05:27:08;;;;;;;8.20;3.20;;;;;;;21.80;100.00;100470.66;105967;1251;61288;-76
2024/04/15 05:29:35;;;;;;;8.10;2.80;;;;;;;22.20;99.75;100472.30;105998;1253;73844;-77
2024/04/15 05:32:01;;;;;;;3.30;1.40;;;;;;;22.47;93.80;100473.04;105992;1254;62800;-76
2024/04/15 05:34:33;;;;;;;2.40;1.20;;;;;;;22.68;87.77;100477.97;105949;1255;73375;-78
2024/04/15 05:37:00;;;;;;;1.50;1.40;;;;;;;22.91;82.39;100469.98;105974;1251;61272;-77
2024/04/15 05:39:27;;;;;;;2.60;1.40;;;;;;;23.13;78.47;100470.30;106005;1251;61288;-78
2024/04/15 05:41:54;;;;;;;4.00;1.40;;;;;;;23.36;74.16;100467.67;106016;1253;74896;-80
2024/04/15 05:44:20;;;;;;;1.60;1.30;;;;;;;23.55;71.16;100462.55;105993;1254;65098;-78
2024/04/15 05:46:51;;;;;;;7.40;2.10;;;;;;;23.72;69.96;100469.58;105989;1255;72995;-78
2024/04/15 05:49:17;;;;;;;4.70;1.90;;;;;;;23.98;68.49;100473.30;105941;1253;61183;-78
2024/04/15 05:51:45;;;;;;;4.00;1.70;;;;;;;24.11;66.13;100472.27;105984;1251;61230;-78
2024/04/15 05:54:12;;;;;;;4.70;1.30;;;;;;;24.00;63.51;100473.67;105942;1254;73546;-80
2024/04/15 05:56:40;;;;;;;3.40;1.10;;;;;;;23.74;63.90;100473.61;105880;1254;64183;-77
2024/04/15 05:59:07;;;;;;;2.60;1.50;;;;;;;23.45;65.32;100477.73;105953;1253;72633;-76
2024/04/15 06:01:33;;;;;;;3.40;1.70;;;;;;;23.18;65.79;100470.52;105940;1253;61221;-79
2024/04/15 06:04:00;;;;;;;2.10;1.20;;;;;;;22.89;66.32;100469.33;106053;1254;61255;-79
2024/04/15 06:06:28;;;;;;;3.40;1.60;;;;;;;22.55;68.06;100468.54;105999;1254;75152;-78
2024/04/15 06:08:54;;;;;;;3.80;1.40;;;;;;;22.21;70.55;100465.61;105896;1253;63105;-78
2024/04/15 06:11:21;;;;;;;1.90;1.30;;;;;;;21.94;75.16;100464.13;105908;1254;72390;-80
2024/04/15 06:13:48;;;;;;;2.90;1.70;;;;;;;21.73;77.95;100466.83;105869;1253;61218;-80
2024/04/15 06:16:17;;;;;;;2.30;1.30;;;;;;;21.53;77.88;100470.20;106067;1254;61121;-79
2024/04/15 06:18:44;;;;;;;4.70;2.10;;;;;;;21.38;78.47;100472.04;106005;1253;74412;-79
2024/04/15 06:21:11;;;;;;;4.10;1.50;;;;;;;21.26;81.45;100470.10;105984;1254;65140;-79
2024/04/15 06:23:38;;;;;;;8.10;2.00;;;;;;;21.16;83.62;100464.05;106102;1254;73699;-78
2024/04/15 06:26:05;;;;;;;4.90;1.60;;;;;;;21.17;86.66;100465.89;106014;1251;61317;-79
2024/04/15 06:28:32;;;;;;;2.40;1.40;;;;;;;21.37;85.51;100471.61;105932;1251;61388;-79
2024/04/15 06:30:59;;;;;;;4.30;1.90;;;;;;;21.71;83.33;100470.56;106080;1254;75551;-76
2024/04/15 06:33:26;;;;;;;2.40;1.00;;;;;;;22.22;80.34;100467.07;105994;1255;62694;-79
2024/04/15 06:35:54;;;;;;;3.00;1.20;;;;;;;22.80;73.84;100469.48;106028;1251;71775;-79
2024/04/15 06:38:22;;;;;;;3.20;1.00;;;;;;;23.43;69.02;100471.45;106114;1256;61170;-78
2024/04/15 06:40:49;;;;;;;3.50;1.70;;;;;;;24.07;64.65;100463.41;106057;1251;61913;-76
2024/04/15 06:43:15;;;;;;;5.60;2.00;;;;;;;24.71;58.88;100464.63;106050;1253;75846;-78
2024/04/15 06:45:43;;;;;;;2.50;1.20;;;;;;;25.27;53.64;100456.70;106064;1253;63848;-76
2024/04/15 06:48:09;;;;;;;3.90;1.60;;;;;;;25.60;51.00;100457.41;106025;1253;73681;-78
2024/04/15 06:50:36;;;;;;;5.40;1.30;;;;;;;25.91;48.18;100458.40;106015;1253;61317;-78
2024/04/15 06:53:04;;;;;;;2.10;1.10;;;;;;;26.30;47.24;100458.30;105956;1251;61375;-78
2024/04/15 06:55:31;;;;;;;2.60;1.10;;;;;;;26.66;45.98;100458.64;106013;1254;73771;-79
2024/04/15 06:57:58;;;;;;;5.30;1.40;;;;;;;26.98;44.68;100454.64;106067;1254;65276;-78
2024/04/15 07:00:25;;;;;;;2.40;1.60;;;;;;;27.29;41.90;100461.77;106068;1253;73995;-78
2024/04/15 07:02:52;;;;;;;3.10;1.20;;;;;;;27.55;41.33;100459.39;106004;1254;61250;-80
2024/04/15 07:05:20;;;;;;;3.30;1.30;;;;;;;27.86;41.25;100453.52;106764;1251;61355;-78
2024/04/15 07:07:52;;;;;;;;;;;;;;;28.24;40.80;100460.24;109864;1251;74468;-78
2024/04/15 07:10:19;;;;;;;3.40;1.40;;;;;;;28.60;39.27;100462.45;107865;1253;61218;-79
2024/04/15 07:12:47;;;;;;;1.50;0.80;;;;;;;28.95;37.75;100461.08;105893;1251;72764;-80
2024/04/15 07:15:16;;;;;;;2.30;1.30;;;;;;;29.23;37.03;100457.23;106021;1249;61244;-78
2024/04/15 07:17:43;;;;;;;5.20;2.50;;;;;;;29.53;37.43;100456.36;106112;1251;61358;-80
2024/04/15 07:20:10;;;;;;;3.40;1.90;;;;;;;29.84;36.79;100455.43;106043;1254;74699;-80
2024/04/15 07:22:39;;;;;;;6.30;1.50;;;;;;;30.12;35.00;100458.31;106026;1252;62750;-81
2024/04/15 07:25:06;;;;;;;1.40;1.20;;;;;;;30.24;34.23;100457.39;106081;1253;71701;-77
2024/04/15 07:27:35;;;;;;;9.50;3.90;;;;;;;30.41;34.81;100464.33;106042;1251;61195;-79
2024/04/15 07:30:02;;;;;;;6.80;4.30;;;;;;;30.56;35.10;100463.56;106005;1251;61282;-81
2024/04/15 07:32:31;;;;;;;4.80;3.30;;;;;;;30.64;34.78;100463.33;105992;1254;74149;-81
2024/04/15 07:34:58;;;;;;;6.90;3.50;;;;;;;30.72;34.83;100469.42;105982;1251;61685;-82
2024/04/15 07:37:25;;;;;;;3.60;2.70;;;;;;;30.92;34.30;100470.58;106111;1251;73538;-81
2024/04/15 07:39:53;;;;;;;5.70;2.50;;;;;;;31.07;33.60;100470.11;106644;1252;61230;-80
2024/04/15 07:42:20;;;;;;;3.80;2.70;;;;;;;31.18;33.35;100465.45;106593;1254;61266;-82
2024/04/15 07:44:58;;;;;;;7.60;2.80;;;;;;;31.32;32.80;100463.27;106072;1251;75714;-82
2024/04/15 07:47:25;;;;;;;6.30;2.30;;;;;;;31.26;32.84;100459.09;105960;1251;63986;-83
2024/04/15 07:49:52;;;;;;;3.40;2.20;;;;;;;31.25;32.67;100465.40;106111;1251;70580;-83
2024/04/15 07:52:19;;;;;;;9.70;2.60;;;;;;;31.38;32.69;100461.94;106021;1253;61504;-83
2024/04/15 07:54:46;;;;;;;6.80;1.70;;;;;;;31.56;32.35;100468.38;105999;1249;61374;-83
2024/04/15 07:57:13;;;;;;;3.70;2.30;;;;;;;31.63;32.20;100465.88;105978;1256;74141;-83
2024/04/15 07:59:41;;;;;;;4.60;2.60;;;;;;;31.68;31.63;100464.70;106030;1254;63504;-81
2024/04/15 08:02:09;;;;;;;7.90;3.00;;;;;;;31.75;30.92;100459.91;105989;1250;71587;-82
2024/04/15 08:04:39;;;;;;;3.90;2.50;;;;;;;31.73;30.70;100459.87;106075;1253;61385;-83
2024/04/15 08:07:06;;;;;;;7.20;3.00;;;;;;;31.79;30.26;100458.44;106061;1251;61241;-83
2024/04/15 08:09:41;;;;;;;4.90;2.80;;;;;;;31.81;30.09;100461.30;105960;1250;74640;-84
2024/04/15 08:12:08;;;;;;;7.40;3.50;;;;;;;31.89;29.71;100464.95;105943;1254;65744;-81
2024/04/15 08:14:35;;;;;;;8.70;2.00;;;;;;;32.06;28.49;100466.64;105941;1251;73706;-82
2024/04/15 08:17:02;;;;;;;8.70;2.40;;;;;;;32.10;28.29;100470.07;105994;1254;61212;-83
2024/04/15 08:19:30;;;;;;;6.30;1.80;;;;;;;32.22;28.28;100476.60;105926;1251;61285;-83
2024/04/15 08:21:58;;;;;;;6.70;1.30;;;;;;;32.23;28.10;100475.44;105922;1253;73934;-82
2024/04/15 08:24:25;;;;;;;4.10;1.00;;;;;;;32.29;27.61;100473.00;106072;1251;64102;-84
2024/04/15 08:26:52;;;;;;;1.10;0.80;;;;;;;32.30;27.44;100472.64;106017;1253;71364;-85
2024/04/15 08:29:19;;;;;;;3.10;0.90;;;;;;;32.37;27.19;100477.17;105995;1253;61199;-85
2024/04/15 08:31:46;;;;;;;2.50;0.80;;;;;;;32.32;26.09;100476.39;105993;1251;61263;-82
2024/04/15 08:34:13;;;;;;;4.10;1.00;;;;;;;32.27;26.24;100477.80;106057;1253;74918;-84
2024/04/15 08:36:40;;;;;;;7.90;1.40;;;;;;;32.19;25.92;100472.43;106017;1253;64225;-84
2024/04/15 08:39:08;;;;;;;2.10;1.00;;;;;;;32.20;26.10;100479.34;105922;1251;72903;-84
2024/04/15 08:41:51;;;;;;;4.60;1.20;;;;;;;32.33;25.97;100477.59;105989;1251;61856;-83
2024/04/15 08:44:32;;;;;;;3.40;1.00;;;;;;;32.37;25.54;100479.00;105917;1251;61368;-84
2024/04/15 08:46:59;;;;;;;4.40;1.00;;;;;;;32.23;25.65;100479.50;106036;1251;75645;-84
2024/04/15 08:49:28;;;;;;;2.90;1.50;;;;;;;31.95;25.43;100479.05;105985;1257;63980;-83
2024/04/15 08:51:55;;;;;;;6.10;1.70;;;;;;;31.79;26.12;100478.99;105912;1255;72678;-84
2024/04/15 08:54:22;;;;;;;8.00;2.90;;;;;;;31.89;26.44;100478.61;105957;1251;61393;-86
2024/04/15 08:56:49;;;;;;;7.40;3.20;;;;;;;31.93;26.67;100479.15;106025;1251;61166;-85
2024/04/15 08:59:17;;;;;;;5.10;2.80;;;;;;;31.93;26.78;100475.45;105954;1250;74378;-86
2024/04/15 09:01:44;;;;;;;7.20;3.70;;;;;;;31.93;26.90;100476.00;106131;1253;64198;-83
2024/04/15 09:04:11;;;;;;;6.90;3.50;;;;;;;31.95;27.19;100469.88;106159;1251;72474;-86
2024/04/15 09:06:39;;;;;;;14.40;4.90;;;;;;;32.11;27.51;100470.50;106069;1253;61168;-82
2024/04/15 09:09:06;;;;;;;11.50;4.40;;;;;;;32.24;27.55;100469.54;107953;1251;60368;-83
2024/04/15 09:11:34;;;;;;;11.70;4.50;;;;;;;32.35;27.41;100476.13;107672;1250;75786;-82
2024/04/15 09:14:03;;;;;;;9.60;4.60;;;;;;;32.39;27.09;100472.90;106542;1254;63137;-85
2024/04/15 09:16:31;;;;;;;8.80;4.00;;;;;;;32.26;27.10;100476.27;106058;1251;72909;-83
2024/04/15 09:18:59;;;;;;;9.90;3.80;;;;;;;32.14;26.90;100469.05;105886;1251;61336;-86
2024/04/15 09:21:26;;;;;;;10.10;3.50;;;;;;;32.13;27.61;100465.13;106068;1253;61548;-83
2024/04/15 09:23:55;;;;;;;11.20;4.60;;;;;;;32.21;27.85;100456.50;106743;1250;74996;-82
2024/04/15 09:26:22;;;;;;;7.50;4.60;;;;;;;32.40;27.49;100450.92;107912;1251;61986;-81
2024/04/15 09:28:49;;;;;;;13.90;5.90;;;;;;;32.46;27.14;100446.11;107619;1251;72467;-84
2024/04/15 09:31:16;;;;;;;10.70;5.60;;;;;;;32.44;27.47;100445.84;106347;1253;61224;-83
2024/04/15 09:33:43;;;;;;;12.90;6.90;;;;;;;32.46;27.18;100436.55;106245;1253;61227;-84
2024/04/15 09:36:10;;;;;;;11.70;6.50;;;;;;;32.55;27.48;100432.67;106176;1250;73771;-85
2024/04/15 09:38:38;;;;;;;14.60;6.20;;;;;;;32.70;27.23;100426.77;106028;1251;64874;-84
2024/04/15 09:41:10;;;;;;;10.50;6.40;;;;;;;32.82;27.28;100425.80;105975;1251;72938;-83
2024/04/15 09:43:38;;;;;;;11.00;6.30;;;;;;;32.95;27.20;100429.21;106055;1254;61167;-85
2024/04/15 09:46:04;;;;;;;6.50;4.80;;;;;;;33.08;26.89;100425.93;105986;1256;61275;-84
2024/04/15 09:48:31;;;;;;;6.90;3.80;;;;;;;33.11;26.74;100420.43;105996;1251;75851;-83
2024/04/15 09:51:13;;;;;;;11.10;3.80;;;;;;;33.08;26.67;100419.91;105952;1254;63902;-85
2024/04/15 09:53:44;;;;;;;11.00;4.40;;;;;;;32.84;26.73;100417.29;106072;1254;73556;-83
2024/04/15 09:56:13;;;;;;;14.00;3.90;;;;;;;32.69;27.25;100418.21;105874;1256;61365;-86
2024/04/15 09:58:43;;;;;;;4.90;3.20;;;;;;;32.65;27.48;100416.62;106102;1251;61358;-83
2024/04/15 10:01:10;;;;;;;11.20;3.00;;;;;;;32.64;27.67;100408.47;106270;1251;74849;-81
2024/04/15 10:03:37;;;;;;;9.70;4.00;;;;;;;32.66;27.69;100399.27;106255;1251;64032;-84
2024/04/15 10:06:04;;;;;;;6.00;3.00;;;;;;;32.63;27.26;100391.81;105892;1254;72448;-85
2024/04/15 10:08:31;;;;;;;6.20;3.20;;;;;;;32.55;27.56;100387.87;105996;1250;61231;-83
2024/04/15 10:10:58;;;;;;;10.70;3.10;;;;;;;32.57;27.86;100387.05;105938;1250;61298;-84
2024/04/15 10:13:25;;;;;;;5.40;2.50;;;;;;;32.65;27.74;100391.69;106236;1253;75790;-83
2024/04/15 10:16:02;;;;;;;5.40;2.80;;;;;;;32.69;28.17;100390.89;105933;1256;66587;-84
2024/04/15 10:18:29;;;;;;;3.80;2.40;;;;;;;32.67;27.23;100391.09;106126;1251;74085;-84
2024/04/15 10:20:57;;;;;;;4.80;2.20;;;;;;;32.41;27.14;100388.61;106019;1251;61313;-86
2024/04/15 10:23:27;;;;;;;6.20;3.10;;;;;;;31.93;27.68;100395.70;106334;1250;61180;-82
2024/04/15 10:25:55;;;;;;;8.00;3.20;;;;;;;31.51;28.03;100392.67;108548;1250;74498;-83
2024/04/15 10:28:22;;;;;;;9.10;3.70;;;;;;;31.22;28.74;100389.58;107828;1256;61639;-87
2024/04/15 10:30:49;;;;;;;7.30;2.50;;;;;;;31.06;28.62;100385.63;105991;1251;73340;-84
2024/04/15 10:33:16;;;;;;;6.70;2.80;;;;;;;31.05;28.77;100386.94;105999;1251;61228;-83
2024/04/15 10:35:44;;;;;;;4.40;2.90;;;;;;;31.04;29.27;100380.85;106364;1254;61225;-82
2024/04/15 10:38:11;;;;;;;9.70;3.60;;;;;;;31.09;28.81;100372.27;106036;1253;75866;-86
2024/04/15 10:40:45;;;;;;;6.70;3.50;;;;;;;31.09;29.11;100364.45;106127;1251;63164;-84
2024/04/15 10:43:12;;;;;;;7.40;2.90;;;;;;;31.12;29.35;100359.15;105978;1253;70711;-86
2024/04/15 10:45:39;;;;;;;5.10;2.90;;;;;;;31.25;29.12;100356.77;106038;1251;61291;-84
2024/04/15 10:48:06;;;;;;;26.90;3.70;;;;;;;31.43;29.32;100354.66;106051;1251;61163;-82
2024/04/15 10:50:33;;;;;;;9.70;1.30;;;;;;;31.67;27.77;100346.55;106013;1253;75440;-85
2024/04/15 10:52:59;;;;;;;8.20;1.30;;;;;;;31.80;26.88;100342.98;106076;1253;62788;-84
2024/04/15 10:55:27;;;;;;;5.40;1.30;;;;;;;31.85;26.70;100333.39;106127;1251;72292;-85
2024/04/15 10:57:54;;;;;;;3.20;1.00;;;;;;;31.93;26.60;100329.26;105984;1251;61269;-85
2024/04/15 11:00:22;;;;;;;2.40;0.90;;;;;;;32.06;26.69;100318.90;106020;1251;61243;-85
2024/04/15 11:02:51;;;;;;;6.10;0.90;;;;;;;32.23;26.68;100310.74;106039;1251;75887;-83
2024/04/15 11:05:23;;;;;;;3.20;0.70;;;;;;;32.19;26.68;100302.02;106042;1251;63979;-81
2024/04/15 11:07:53;;;;;;;5.00;1.30;;;;;;;32.18;26.82;100294.88;106188;1251;73022;-84
2024/04/15 11:10:21;;;;;;;3.80;1.00;;;;;;;32.32;26.99;100287.48;106037;1251;61358;-84
2024/04/15 11:12:51;;;;;;;15.20;1.40;;;;;;;32.54;26.60;100286.08;106009;1252;61141;-82
2024/04/15 11:15:18;;;;;;;8.00;1.10;;;;;;;32.59;25.64;100285.05;106079;1251;73665;-82